Time;durP1;ratioP1;P1;durP2;ratioP2;P2;SDS_P1;SDS_P2;PMS_P1;PMS_P2;Temp;Humidity;BMP_temperature;BMP_pressure;BME280_temperature;BME280_humidity;BME280_pressure;Samples;Min_cycle;Max_cycle;Signal;HPM_P1;HPM_P2
2022/11/02 00:00:44;;;;;;;2.15;1.20;;;17.30;70.80;;;;;;5031815;28;20139;-73
2022/11/02 00:03:11;;;;;;;1.98;1.20;;;17.30;70.80;;;;;;5031747;28;20053;-73
2022/11/02 00:05:37;;;;;;;3.05;1.10;;;17.30;70.90;;;;;;5031590;28;20053;-73
2022/11/02 00:08:04;;;;;;;3.72;1.30;;;17.30;70.90;;;;;;5031190;28;20057;-73
2022/11/02 00:10:31;;;;;;;2.58;1.13;;;17.30;70.90;;;;;;5032557;28;20053;-73
2022/11/02 00:12:59;;;;;;;2.95;1.08;;;17.20;70.90;;;;;;5031842;28;20055;-72
2022/11/02 00:15:28;;;;;;;1.58;1.02;;;17.20;70.80;;;;;;5032548;28;20057;-73
2022/11/02 00:17:58;;;;;;;1.50;1.00;;;17.30;70.90;;;;;;5031804;28;20137;-73
2022/11/02 00:20:25;;;;;;;2.13;1.20;;;17.20;70.90;;;;;;5030587;28;20053;-73
2022/11/02 00:22:52;;;;;;;2.97;1.40;;;17.20;70.90;;;;;;5031343;28;20053;-73
2022/11/02 00:25:19;;;;;;;3.25;1.17;;;17.20;70.90;;;;;;5031185;28;20060;-73
2022/11/02 00:27:46;;;;;;;2.30;1.25;;;17.20;70.90;;;;;;5031337;28;20053;-73
2022/11/02 00:30:13;;;;;;;2.67;1.30;;;17.20;70.90;;;;;;5031220;28;20053;-73
2022/11/02 00:32:40;;;;;;;2.15;1.38;;;17.20;70.90;;;;;;5031392;28;20053;-72
2022/11/02 00:35:09;;;;;;;1.90;1.20;;;17.20;70.90;;;;;;5023610;28;20045;-72
2022/11/02 00:37:36;;;;;;;2.60;1.20;;;17.20;70.90;;;;;;5011616;28;20069;-73
2022/11/02 00:40:02;;;;;;;1.90;1.10;;;17.20;70.90;;;;;;5011472;28;20495;-73
2022/11/02 00:42:29;;;;;;;2.17;1.10;;;17.20;70.90;;;;;;5011057;28;20088;-72
2022/11/02 00:44:56;;;;;;;3.00;1.02;;;17.20;70.90;;;;;;5011538;28;20050;-73
2022/11/02 00:47:22;;;;;;;3.83;1.25;;;17.20;70.90;;;;;;5012399;28;20054;-73
2022/11/02 00:49:49;;;;;;;4.25;1.27;;;17.20;70.90;;;;;;5017818;28;20132;-74
2022/11/02 00:52:17;;;;;;;1.42;1.00;;;17.20;70.90;;;;;;5030731;28;20132;-73
2022/11/02 00:54:44;;;;;;;2.65;1.27;;;17.20;70.90;;;;;;5030540;28;20141;-73
2022/11/02 00:57:11;;;;;;;3.00;1.27;;;17.20;70.90;;;;;;5032232;28;20139;-73
2022/11/02 00:59:37;;;;;;;2.55;1.20;;;17.10;70.90;;;;;;5031143;28;20412;-74
2022/11/02 01:02:04;;;;;;;2.38;1.00;;;17.20;70.90;;;;;;5030805;28;20172;-72
2022/11/02 01:04:31;;;;;;;2.97;1.25;;;17.10;70.90;;;;;;5016670;28;20049;-73
2022/11/02 01:06:57;;;;;;;3.15;1.20;;;17.10;70.90;;;;;;5011043;28;20141;-72
2022/11/02 01:09:26;;;;;;;5.13;1.17;;;17.10;70.90;;;;;;5011062;28;20590;-73
2022/11/02 01:11:53;;;;;;;2.45;1.20;;;17.20;70.90;;;;;;5011974;28;20076;-73
2022/11/02 01:14:20;;;;;;;2.53;1.10;;;17.10;70.90;;;;;;5011165;28;20130;-73
2022/11/02 01:16:46;;;;;;;2.65;1.10;;;17.10;70.90;;;;;;5010768;28;20133;-73
2022/11/02 01:19:13;;;;;;;1.70;1.00;;;17.20;70.90;;;;;;5012242;28;20061;-73
2022/11/02 01:21:40;;;;;;;1.70;1.10;;;17.10;70.90;;;;;;5010984;28;20708;-73
2022/11/02 01:24:07;;;;;;;2.95;1.10;;;17.10;70.90;;;;;;5010693;28;20064;-73
2022/11/02 01:26:35;;;;;;;1.65;1.10;;;17.10;70.90;;;;;;5010980;28;20526;-73
2022/11/02 01:29:02;;;;;;;3.08;1.10;;;17.10;70.90;;;;;;5011923;28;20081;-73
2022/11/02 01:31:29;;;;;;;1.83;1.05;;;17.10;70.90;;;;;;5028709;28;20053;-73
2022/11/02 01:33:55;;;;;;;1.23;0.95;;;17.10;70.90;;;;;;5016773;28;20142;-72
2022/11/02 01:36:22;;;;;;;2.15;1.00;;;17.10;70.90;;;;;;5034551;28;20056;-72
2022/11/02 01:38:49;;;;;;;1.48;0.88;;;17.10;70.90;;;;;;5034554;28;20132;-73
2022/11/02 01:41:16;;;;;;;3.03;1.25;;;17.10;70.90;;;;;;5035419;28;20124;-73
2022/11/02 01:43:44;;;;;;;2.50;1.20;;;17.10;71.00;;;;;;5035327;28;20055;-72
2022/11/02 01:46:16;;;;;;;1.70;0.95;;;17.10;71.00;;;;;;5034422;28;20061;-73
2022/11/02 01:48:44;;;;;;;2.25;1.10;;;17.10;71.00;;;;;;5024173;28;20060;-74
2022/11/02 01:51:12;;;;;;;2.10;1.20;;;17.00;70.90;;;;;;5030445;28;20129;-72
2022/11/02 01:53:41;;;;;;;2.22;1.23;;;17.00;71.00;;;;;;5018383;28;20069;-74
2022/11/02 01:56:07;;;;;;;1.92;1.13;;;17.00;71.00;;;;;;5034123;28;20060;-73
2022/11/02 01:58:34;;;;;;;2.25;1.13;;;17.00;70.90;;;;;;5034203;28;20057;-73
2022/11/02 02:01:02;;;;;;;2.53;1.00;;;17.00;71.00;;;;;;5034201;28;20160;-73
2022/11/02 02:03:30;;;;;;;2.53;1.20;;;17.00;70.90;;;;;;5034621;28;20050;-73
2022/11/02 02:05:57;;;;;;;2.40;1.00;;;17.00;71.00;;;;;;5033694;28;20059;-73
2022/11/02 02:08:25;;;;;;;2.05;1.20;;;17.00;71.00;;;;;;5034116;28;20053;-72
2022/11/02 02:10:51;;;;;;;1.90;1.30;;;17.00;71.00;;;;;;5033771;28;20514;-73
2022/11/02 02:13:18;;;;;;;2.25;1.20;;;17.00;71.00;;;;;;5033464;28;20057;-73
2022/11/02 02:15:48;;;;;;;2.97;1.10;;;17.00;71.00;;;;;;5033817;28;20054;-73
2022/11/02 02:18:19;;;;;;;1.92;1.08;;;17.00;71.00;;;;;;5015497;28;20180;-72
2022/11/02 02:20:57;;;;;;;1.17;0.90;;;17.00;71.00;;;;;;5030426;28;20616;-73
2022/11/02 02:23:53;;;;;;;2.15;0.90;;;17.00;71.00;;;;;;5045012;28;20062;-73
2022/11/02 02:27:02;;;;;;;2.97;1.05;;;17.00;70.90;;;;;;5046900;28;20129;-73
2022/11/02 02:29:31;;;;;;;1.75;1.10;;;17.00;70.90;;;;;;5016202;28;20063;-72
2022/11/02 02:31:59;;;;;;;2.58;1.08;;;17.00;71.10;;;;;;5015798;28;20053;-72
2022/11/02 02:34:28;;;;;;;3.63;1.30;;;17.00;71.10;;;;;;5013259;28;20057;-73
2022/11/02 02:37:00;;;;;;;2.45;1.10;;;17.00;71.00;;;;;;5013708;28;20495;-73
2022/11/02 02:39:29;;;;;;;1.60;0.90;;;17.00;71.00;;;;;;5013796;28;20057;-72
2022/11/02 02:41:58;;;;;;;2.22;1.15;;;17.00;71.00;;;;;;5013024;28;20060;-72
2022/11/02 02:44:26;;;;;;;3.30;1.02;;;17.00;71.10;;;;;;5013670;28;20111;-73
2022/11/02 02:46:55;;;;;;;1.40;0.90;;;17.00;71.00;;;;;;5014534;28;20507;-74
2022/11/02 02:49:35;;;;;;;2.33;1.10;;;17.00;71.00;;;;;;5033432;28;20057;-72
2022/11/02 02:52:02;;;;;;;2.00;1.10;;;17.00;71.00;;;;;;5034157;28;20055;-72
2022/11/02 02:54:31;;;;;;;1.98;1.00;;;17.00;71.10;;;;;;5034270;28;20104;-74
2022/11/02 02:57:01;;;;;;;1.77;1.00;;;16.90;71.00;;;;;;5033025;28;20059;-73
2022/11/02 02:59:29;;;;;;;2.03;1.00;;;17.00;71.10;;;;;;5032971;28;20057;-73
2022/11/02 03:01:57;;;;;;;1.80;1.00;;;17.00;71.10;;;;;;5022332;28;20121;-72
2022/11/02 03:04:24;;;;;;;3.10;1.15;;;17.00;71.00;;;;;;5013368;28;20064;-73
2022/11/02 03:06:52;;;;;;;1.90;1.10;;;16.90;71.00;;;;;;5029651;28;20076;-73
2022/11/02 03:09:22;;;;;;;3.28;1.17;;;16.90;71.00;;;;;;5013220;28;20049;-73
2022/11/02 03:11:51;;;;;;;2.58;1.10;;;16.90;71.00;;;;;;5029362;28;20066;-73
2022/11/02 03:14:24;;;;;;;1.58;1.02;;;16.90;71.50;;;;;;5029675;28;20161;-73
2022/11/02 03:17:02;;;;;;;1.77;1.00;;;16.90;71.00;;;;;;5029616;28;20054;-73
2022/11/02 03:19:32;;;;;;;2.72;1.20;;;16.90;71.00;;;;;;5046031;28;20089;-73
2022/11/02 03:22:00;;;;;;;2.28;1.10;;;16.90;71.10;;;;;;5045978;28;20058;-73
2022/11/02 03:24:28;;;;;;;2.75;1.05;;;16.90;71.10;;;;;;5046062;28;20057;-73
2022/11/02 03:27:01;;;;;;;1.42;0.95;;;16.90;71.10;;;;;;5028935;28;20060;-73
2022/11/02 03:29:31;;;;;;;1.25;0.90;;;16.90;71.00;;;;;;5032413;28;20055;-73
2022/11/02 03:32:01;;;;;;;2.30;1.00;;;16.90;71.10;;;;;;5032405;28;20071;-73
2022/11/02 03:34:28;;;;;;;3.38;1.00;;;16.90;71.10;;;;;;5032313;28;20057;-73
2022/11/02 03:36:59;;;;;;;2.35;1.25;;;16.90;71.10;;;;;;5032445;28;20065;-73
2022/11/02 03:39:29;;;;;;;2.13;1.05;;;16.90;71.10;;;;;;5032567;28;20583;-73
2022/11/02 03:41:55;;;;;;;3.15;1.30;;;16.90;71.10;;;;;;5033439;28;20125;-73
2022/11/02 03:44:24;;;;;;;1.27;0.90;;;16.90;71.10;;;;;;5027133;28;20046;-73
2022/11/02 03:46:51;;;;;;;1.23;0.98;;;16.90;71.10;;;;;;5028908;28;20058;-73
2022/11/02 03:49:19;;;;;;;1.73;1.10;;;16.90;71.10;;;;;;5029066;28;20064;-73
2022/11/02 03:51:46;;;;;;;2.25;1.20;;;16.90;71.10;;;;;;5011801;28;20472;-73
2022/11/02 03:54:15;;;;;;;1.80;1.00;;;16.90;71.10;;;;;;5011151;28;20050;-73
2022/11/02 03:56:43;;;;;;;1.77;1.00;;;16.90;71.10;;;;;;5028776;28;20042;-73
2022/11/02 03:59:10;;;;;;;2.17;0.80;;;16.90;71.10;;;;;;5028804;28;20054;-73
2022/11/02 04:01:37;;;;;;;1.92;1.10;;;16.90;71.10;;;;;;5044759;28;20094;-74
2022/11/02 04:04:04;;;;;;;2.35;1.10;;;16.90;71.10;;;;;;5044863;28;20087;-73
2022/11/02 04:06:32;;;;;;;2.33;1.00;;;16.80;71.10;;;;;;5045120;28;20076;-73
2022/11/02 04:08:59;;;;;;;1.92;1.15;;;16.80;71.10;;;;;;5045399;28;20064;-74
2022/11/02 04:19:26;;;;;;;2.22;1.10;;;16.90;71.10;;;;;;5032723;28;20414;-72
2022/11/02 04:19:40;;;;;;;1.95;0.88;;;16.80;71.10;;;;;;5031156;28;20049;-73
2022/11/02 04:27:36;;;;;;;1.88;1.17;;;16.80;71.10;;;;;;5020178;28;20050;-72
2022/11/02 04:30:03;;;;;;;1.98;1.02;;;16.80;71.10;;;;;;5011448;28;20054;-72
2022/11/02 04:35:13;;;;;;;1.45;0.90;;;16.80;71.10;;;;;;4972173;28;20081;-72
2022/11/02 04:40:26;;;;;;;2.40;1.00;;;16.80;71.10;;;;;;5012478;28;20144;-73
2022/11/02 04:42:53;;;;;;;2.17;1.05;;;16.80;71.10;;;;;;5012430;28;20059;-73
2022/11/02 04:45:20;;;;;;;1.77;1.02;;;16.80;71.10;;;;;;5042805;28;20056;-73
2022/11/02 04:47:46;;;;;;;2.70;1.20;;;16.80;71.10;;;;;;5044349;28;20058;-72
2022/11/02 04:50:13;;;;;;;1.77;0.90;;;16.80;71.10;;;;;;5012307;28;20076;-73
2022/11/02 04:52:41;;;;;;;1.73;0.93;;;16.80;71.10;;;;;;5027561;28;20053;-73
2022/11/02 04:55:08;;;;;;;1.88;0.90;;;16.70;71.00;;;;;;5044468;28;20606;-73
2022/11/02 04:57:35;;;;;;;1.10;0.82;;;16.80;71.10;;;;;;5044310;28;20136;-73
2022/11/02 05:00:06;;;;;;;1.30;0.90;;;16.80;71.10;;;;;;5057292;28;20053;-73
2022/11/02 05:02:32;;;;;;;2.33;1.15;;;16.80;71.10;;;;;;5030802;28;20059;-74
2022/11/02 05:04:59;;;;;;;2.40;1.10;;;16.80;71.10;;;;;;5030806;28;20057;-73
2022/11/02 05:07:26;;;;;;;1.70;1.00;;;16.70;71.10;;;;;;5030671;28;20050;-73
2022/11/02 05:09:54;;;;;;;1.60;0.95;;;16.70;71.00;;;;;;5030983;28;20507;-74
2022/11/02 05:12:20;;;;;;;2.13;1.13;;;16.70;71.10;;;;;;5030774;28;20164;-74
2022/11/02 05:14:47;;;;;;;1.73;0.95;;;16.70;71.00;;;;;;5029946;28;20060;-72
2022/11/02 05:17:15;;;;;;;1.35;0.80;;;16.70;71.10;;;;;;5030699;28;20055;-72
2022/11/02 05:19:41;;;;;;;1.67;1.05;;;16.70;71.00;;;;;;5031789;28;20058;-73
2022/11/02 05:22:08;;;;;;;1.33;0.88;;;16.70;71.00;;;;;;5030785;28;20550;-73
2022/11/02 05:24:35;;;;;;;1.05;0.85;;;16.70;71.00;;;;;;5028986;28;20064;-73
2022/11/02 05:27:03;;;;;;;1.63;0.90;;;16.70;71.00;;;;;;5030204;28;20402;-73
2022/11/02 05:29:29;;;;;;;1.92;0.90;;;16.70;71.00;;;;;;5030699;28;20137;-73
2022/11/02 05:31:57;;;;;;;1.95;1.08;;;16.70;71.00;;;;;;5030484;28;20071;-73
2022/11/02 05:34:23;;;;;;;1.17;0.70;;;16.70;71.00;;;;;;5030681;28;20057;-74
2022/11/02 05:36:50;;;;;;;1.67;0.90;;;16.70;71.00;;;;;;5027967;28;20488;-73
2022/11/02 05:39:17;;;;;;;1.25;0.80;;;16.70;71.10;;;;;;5010602;28;20060;-73
2022/11/02 05:41:43;;;;;;;4.35;1.08;;;16.70;71.00;;;;;;5010582;28;20113;-74
2022/11/02 05:44:11;;;;;;;1.67;0.90;;;16.70;71.00;;;;;;5010920;28;20056;-73
2022/11/02 05:46:38;;;;;;;1.85;1.00;;;16.70;71.00;;;;;;5011850;28;20388;-73
2022/11/02 05:49:05;;;;;;;2.53;1.10;;;16.70;71.00;;;;;;5011855;28;20050;-74
2022/11/02 05:51:32;;;;;;;1.50;0.95;;;16.70;71.00;;;;;;5020253;28;20087;-72
2022/11/02 05:53:58;;;;;;;1.73;0.90;;;16.70;71.00;;;;;;5030425;28;20060;-74
2022/11/02 05:56:25;;;;;;;1.25;0.82;;;16.70;71.50;;;;;;5030565;28;20053;-74
2022/11/02 05:58:54;;;;;;;1.50;0.90;;;16.70;71.00;;;;;;5030503;28;20644;-73
2022/11/02 06:01:22;;;;;;;2.15;0.90;;;16.70;71.00;;;;;;5030389;28;20244;-74
2022/11/02 06:03:48;;;;;;;1.63;0.90;;;16.70;71.00;;;;;;5030238;28;20147;-73
2022/11/02 06:06:15;;;;;;;1.95;0.93;;;16.70;71.50;;;;;;5013874;28;20446;-73
2022/11/02 06:08:42;;;;;;;1.63;0.93;;;16.70;71.00;;;;;;5010806;28;20140;-73
2022/11/02 06:11:10;;;;;;;1.30;0.98;;;16.70;71.00;;;;;;5010358;28;20064;-73
2022/11/02 06:13:36;;;;;;;2.85;1.30;;;16.70;71.00;;;;;;5010550;28;20062;-73
2022/11/02 06:16:04;;;;;;;1.45;0.90;;;16.70;71.00;;;;;;5010609;28;20068;-73
2022/11/02 06:18:32;;;;;;;3.13;1.20;;;16.70;71.00;;;;;;5018070;28;20045;-74
2022/11/02 06:20:59;;;;;;;1.42;0.93;;;16.70;71.00;;;;;;5034601;28;20054;-73
2022/11/02 06:23:26;;;;;;;1.75;0.90;;;16.60;70.90;;;;;;5034904;28;20133;-74
2022/11/02 06:25:52;;;;;;;2.47;0.88;;;16.60;70.90;;;;;;5033865;28;20074;-74
2022/11/02 06:28:19;;;;;;;2.08;0.90;;;16.60;70.90;;;;;;5033362;28;20059;-73
2022/11/02 06:30:46;;;;;;;2.35;1.10;;;16.60;70.90;;;;;;5033563;28;20063;-73
2022/11/02 06:33:13;;;;;;;1.60;0.90;;;16.60;70.90;;;;;;5020869;28;20475;-73
2022/11/02 06:35:44;;;;;;;1.50;0.90;;;16.60;70.90;;;;;;5013734;28;20050;-74
2022/11/02 06:38:10;;;;;;;1.70;0.98;;;16.60;70.90;;;;;;5029917;28;20185;-73
2022/11/02 06:40:37;;;;;;;1.58;0.90;;;16.60;70.90;;;;;;5013633;28;20148;-74
2022/11/02 06:43:04;;;;;;;1.38;0.80;;;16.60;70.90;;;;;;5013750;28;20090;-73
2022/11/02 06:45:30;;;;;;;2.08;1.02;;;16.60;70.90;;;;;;5014651;28;20140;-73
2022/11/02 06:47:57;;;;;;;1.83;0.90;;;16.60;70.90;;;;;;5029862;28;20486;-74
2022/11/02 06:50:24;;;;;;;2.40;0.90;;;16.60;70.90;;;;;;5046130;28;20061;-73
2022/11/02 06:52:52;;;;;;;3.80;1.20;;;16.60;70.90;;;;;;5046759;28;20053;-72
2022/11/02 06:55:19;;;;;;;1.98;1.00;;;16.60;70.90;;;;;;5046755;28;20064;-72
2022/11/02 06:57:46;;;;;;;2.55;0.90;;;16.60;70.90;;;;;;5029842;28;20050;-73
2022/11/02 07:00:16;;;;;;;2.15;0.90;;;16.60;70.90;;;;;;5021807;28;20472;-74
2022/11/02 07:02:43;;;;;;;2.03;1.00;;;16.60;70.90;;;;;;5033969;28;20053;-74
2022/11/02 07:05:09;;;;;;;1.85;0.95;;;16.60;70.90;;;;;;5032777;28;20060;-72
2022/11/02 07:07:36;;;;;;;2.40;1.10;;;16.60;70.90;;;;;;5033959;28;20060;-73
2022/11/02 07:10:07;;;;;;;2.95;1.00;;;16.60;70.90;;;;;;5032909;28;20057;-73
2022/11/02 07:12:34;;;;;;;2.10;1.08;;;16.60;70.90;;;;;;5033011;28;20127;-73
2022/11/02 07:15:01;;;;;;;2.28;1.23;;;16.60;70.90;;;;;;5016886;28;20054;-74
2022/11/02 07:17:28;;;;;;;1.17;0.80;;;16.60;70.90;;;;;;5013678;28;20050;-74
2022/11/02 07:19:54;;;;;;;2.60;0.98;;;16.60;70.90;;;;;;5028710;28;20625;-74
2022/11/02 07:22:21;;;;;;;1.05;0.90;;;16.60;70.90;;;;;;5028719;28;20054;-73
2022/11/02 07:24:48;;;;;;;1.17;0.90;;;16.60;70.90;;;;;;5013890;28;20050;-73
2022/11/02 07:27:19;;;;;;;2.17;1.08;;;16.60;70.90;;;;;;5017097;28;20136;-73
2022/11/02 07:29:46;;;;;;;2.22;0.95;;;16.60;71.50;;;;;;5031043;28;20065;-73
2022/11/02 07:32:15;;;;;;;1.85;1.00;;;16.60;71.00;;;;;;5033413;28;20505;-74
2022/11/02 07:34:43;;;;;;;2.22;1.30;;;16.60;71.00;;;;;;5033567;28;20387;-73
2022/11/02 07:37:09;;;;;;;1.88;0.90;;;16.60;70.90;;;;;;5032691;28;20132;-75
2022/11/02 07:39:36;;;;;;;2.47;1.10;;;16.60;70.90;;;;;;5032264;28;20053;-73
2022/11/02 07:42:03;;;;;;;2.75;1.00;;;16.70;70.90;;;;;;5037520;28;20055;-74
2022/11/02 07:44:31;;;;;;;2.75;0.82;;;16.70;70.80;;;;;;5041489;28;20132;-73
2022/11/02 07:46:58;;;;;;;5.22;0.98;;;16.80;70.80;;;;;;5040612;28;20049;-73
2022/11/02 07:49:25;;;;;;;2.35;1.08;;;16.80;70.80;;;;;;5036418;28;20054;-73
2022/11/02 07:51:51;;;;;;;3.42;1.20;;;16.80;70.70;;;;;;5041130;28;20055;-73
2022/11/02 07:54:18;;;;;;;2.08;0.80;;;16.90;70.70;;;;;;5042506;28;20398;-73
2022/11/02 07:56:45;;;;;;;4.78;1.00;;;16.90;70.70;;;;;;5039375;28;20152;-73
2022/11/02 07:59:12;;;;;;;3.00;1.00;;;16.90;70.60;;;;;;5041125;28;20060;-74
2022/11/02 08:01:40;;;;;;;3.45;1.20;;;16.90;70.60;;;;;;5042348;28;20052;-74
2022/11/02 08:04:06;;;;;;;2.58;1.00;;;17.00;70.60;;;;;;5041068;28;20203;-74
2022/11/02 08:06:34;;;;;;;2.63;1.00;;;17.00;70.50;;;;;;5041069;28;20479;-74
2022/11/02 08:09:02;;;;;;;1.35;0.90;;;17.00;70.50;;;;;;5040805;28;20091;-74
2022/11/02 08:11:28;;;;;;;2.13;0.90;;;17.10;70.50;;;;;;5041550;28;20056;-74
2022/11/02 08:13:55;;;;;;;2.92;1.17;;;17.10;70.50;;;;;;5041949;28;20132;-73
2022/11/02 08:16:22;;;;;;;2.30;1.20;;;17.10;70.40;;;;;;5037282;28;20053;-74
2022/11/02 08:18:50;;;;;;;1.77;1.00;;;17.10;70.40;;;;;;5040893;28;20046;-72
2022/11/02 08:21:16;;;;;;;2.22;0.90;;;17.10;70.30;;;;;;5040048;28;20056;-73
2022/11/02 08:23:43;;;;;;;1.58;0.95;;;17.10;70.30;;;;;;5020722;28;20053;-73
2022/11/02 08:26:10;;;;;;;3.08;1.05;;;17.20;70.40;;;;;;5060596;28;20053;-73
2022/11/02 08:28:39;;;;;;;2.17;1.00;;;17.10;70.30;;;;;;5060897;28;20225;-74
2022/11/02 08:31:06;;;;;;;3.05;1.00;;;17.20;70.30;;;;;;5030479;28;20136;-74
2022/11/02 08:33:33;;;;;;;2.67;1.00;;;17.20;70.30;;;;;;5030733;28;20045;-74
2022/11/02 08:36:03;;;;;;;1.52;1.00;;;17.20;70.30;;;;;;5030136;28;20049;-74
2022/11/02 08:38:30;;;;;;;5.50;1.05;;;17.20;70.20;;;;;;5049389;28;20483;-74
2022/11/02 08:40:57;;;;;;;1.90;0.93;;;17.20;70.20;;;;;;5061434;28;20049;-74
2022/11/02 08:43:23;;;;;;;3.00;1.20;;;17.30;70.20;;;;;;5052219;28;20052;-72
2022/11/02 08:45:50;;;;;;;2.28;1.10;;;17.30;70.20;;;;;;5043152;28;20056;-73
2022/11/02 08:48:17;;;;;;;2.25;1.10;;;17.20;70.10;;;;;;5031083;28;20050;-74
2022/11/02 08:50:43;;;;;;;1.90;1.08;;;17.30;70.10;;;;;;5039500;28;20491;-73
2022/11/02 08:53:11;;;;;;;2.78;1.40;;;17.30;70.10;;;;;;5040621;28;20127;-73
2022/11/02 08:55:38;;;;;;;1.73;0.90;;;17.30;70.10;;;;;;5038304;28;20487;-73
2022/11/02 08:58:05;;;;;;;1.88;1.00;;;17.30;70.10;;;;;;5039966;28;20503;-73
2022/11/02 09:00:32;;;;;;;1.73;0.98;;;17.30;70.10;;;;;;5033151;28;20136;-74
2022/11/02 09:03:00;;;;;;;3.58;1.02;;;17.30;70.10;;;;;;5030710;28;20136;-73
2022/11/02 09:05:27;;;;;;;4.60;1.13;;;17.30;70.00;;;;;;5030138;28;20088;-73
2022/11/02 09:07:55;;;;;;;2.83;1.00;;;17.30;70.10;;;;;;5030365;28;20072;-73
2022/11/02 09:10:23;;;;;;;3.20;1.05;;;17.30;70.10;;;;;;5031722;28;20052;-73
2022/11/02 09:12:50;;;;;;;2.63;1.00;;;17.30;70.00;;;;;;5030859;28;20137;-74
2022/11/02 09:15:16;;;;;;;1.58;0.80;;;17.30;70.00;;;;;;5030640;28;20061;-74
2022/11/02 09:17:46;;;;;;;2.22;1.00;;;17.30;70.00;;;;;;5030062;28;20479;-73
2022/11/02 09:20:13;;;;;;;2.50;1.08;;;17.30;70.00;;;;;;5010628;28;20054;-73
2022/11/02 09:22:40;;;;;;;2.90;1.20;;;17.30;70.10;;;;;;5010898;28;20126;-75
2022/11/02 09:25:07;;;;;;;5.03;1.20;;;17.30;70.10;;;;;;5011130;28;20148;-73
2022/11/02 09:27:36;;;;;;;2.17;1.20;;;17.30;70.10;;;;;;5011863;28;20049;-75
2022/11/02 09:30:03;;;;;;;2.45;1.13;;;17.30;70.10;;;;;;5026773;28;20058;-73
2022/11/02 09:32:32;;;;;;;3.28;1.00;;;17.30;70.10;;;;;;5020115;28;20059;-74
2022/11/02 09:34:59;;;;;;;2.80;1.20;;;17.30;70.10;;;;;;5030746;28;20140;-74
2022/11/02 09:37:25;;;;;;;2.10;1.10;;;17.30;70.10;;;;;;5030466;28;20056;-74
2022/11/02 09:39:52;;;;;;;1.80;0.88;;;17.30;70.10;;;;;;5030556;28;20055;-73
2022/11/02 09:42:20;;;;;;;4.57;1.15;;;17.30;70.10;;;;;;5031495;28;20124;-73
2022/11/02 09:44:50;;;;;;;2.53;1.08;;;17.30;70.10;;;;;;5030678;28;20061;-73
2022/11/02 09:47:16;;;;;;;2.78;1.10;;;17.30;70.10;;;;;;5012686;28;20058;-74
2022/11/02 09:49:43;;;;;;;4.53;1.10;;;17.30;70.10;;;;;;5023038;28;20054;-73
2022/11/02 09:52:11;;;;;;;2.53;0.90;;;17.30;70.10;;;;;;5032655;28;20108;-73
2022/11/02 09:54:40;;;;;;;2.90;1.00;;;17.30;70.10;;;;;;5054356;28;20142;-73
2022/11/02 09:57:10;;;;;;;5.57;1.00;;;17.30;70.10;;;;;;5046347;28;20510;-73
2022/11/02 09:59:37;;;;;;;3.03;1.10;;;17.30;70.10;;;;;;5034552;28;20057;-73
2022/11/02 10:02:09;;;;;;;4.38;1.00;;;17.30;70.10;;;;;;5032327;28;20065;-73
2022/11/02 10:05:04;;;;;;;3.00;1.13;;;17.30;70.10;;;;;;5034204;28;20057;-74
2022/11/02 10:07:44;;;;;;;1.55;0.98;;;17.30;70.10;;;;;;5015184;28;20129;-73
2022/11/02 10:10:13;;;;;;;3.33;1.10;;;17.30;70.10;;;;;;5027748;28;20226;-74
2022/11/02 10:12:43;;;;;;;1.75;0.82;;;17.30;70.10;;;;;;5033233;28;20136;-74
2022/11/02 10:15:12;;;;;;;3.60;1.17;;;17.30;70.10;;;;;;5032551;28;20057;-74
2022/11/02 10:17:40;;;;;;;1.98;1.00;;;17.30;70.10;;;;;;5066662;28;20049;-74
2022/11/02 10:20:11;;;;;;;2.83;1.30;;;17.30;70.10;;;;;;5065534;28;20065;-74
2022/11/02 10:22:39;;;;;;;2.60;1.25;;;17.30;70.10;;;;;;5033960;28;20068;-74
2022/11/02 10:25:06;;;;;;;2.92;1.30;;;17.30;70.10;;;;;;5034296;28;20061;-73
2022/11/02 10:27:36;;;;;;;3.80;1.20;;;17.30;70.00;;;;;;5016278;28;20058;-74
2022/11/02 10:30:04;;;;;;;2.17;0.93;;;17.30;70.00;;;;;;5013915;28;20064;-75
2022/11/02 10:32:31;;;;;;;3.08;1.00;;;17.80;71.30;;;;;;5047773;28;20063;-73
2022/11/02 10:34:59;;;;;;;2.97;1.13;;;17.30;70.00;;;;;;5033780;28;20521;-72
2022/11/02 10:37:34;;;;;;;3.70;1.42;;;17.30;70.00;;;;;;5033430;28;20149;-72
2022/11/02 10:40:07;;;;;;;2.67;1.33;;;17.40;70.00;;;;;;5033380;28;20156;-72
2022/11/02 10:42:43;;;;;;;4.32;1.15;;;17.40;70.10;;;;;;5032255;28;20055;-73
2022/11/02 10:45:23;;;;;;;2.45;1.00;;;17.40;70.00;;;;;;5032139;28;20552;-74
2022/11/02 10:47:53;;;;;;;2.45;1.30;;;17.40;70.00;;;;;;5028641;28;20057;-75
2022/11/02 10:50:30;;;;;;;5.90;1.38;;;17.40;70.00;;;;;;5032945;28;20136;-75
2022/11/02 10:52:58;;;;;;;3.42;1.58;;;17.40;70.00;;;;;;5032650;28;20112;-74
2022/11/02 10:55:28;;;;;;;3.33;1.30;;;17.40;70.00;;;;;;5032993;28;20053;-74
2022/11/02 10:57:55;;;;;;;3.00;1.42;;;17.40;70.00;;;;;;5013334;28;20133;-74
2022/11/02 11:00:27;;;;;;;2.10;0.90;;;17.40;70.00;;;;;;5020582;28;20130;-73
2022/11/02 11:03:10;;;;;;;4.65;1.10;;;17.40;69.90;;;;;;5032999;28;20157;-73
2022/11/02 11:05:54;;;;;;;2.58;1.25;;;17.40;69.90;;;;;;5033182;28;20084;-73
2022/11/02 11:08:35;;;;;;;3.45;1.58;;;17.40;69.90;;;;;;5032585;28;20057;-73
2022/11/02 11:11:13;;;;;;;3.05;1.10;;;17.40;69.90;;;;;;5032771;28;20140;-73
2022/11/02 11:13:40;;;;;;;2.15;1.05;;;17.40;69.90;;;;;;5030918;28;20056;-73
2022/11/02 11:16:07;;;;;;;3.47;0.98;;;17.40;70.00;;;;;;5030806;28;20128;-74
2022/11/02 11:18:34;;;;;;;3.15;1.10;;;17.40;69.90;;;;;;5046220;28;20072;-71
2022/11/02 11:21:02;;;;;;;3.92;1.20;;;17.40;69.90;;;;;;5013831;28;20411;-73
2022/11/02 11:23:29;;;;;;;4.38;1.58;;;17.40;69.90;;;;;;5012884;28;20068;-73
2022/11/02 11:26:00;;;;;;;2.13;1.00;;;17.40;69.90;;;;;;5037970;28;20762;-73
2022/11/02 11:28:29;;;;;;;2.88;1.00;;;17.40;69.90;;;;;;5037360;28;20132;-73
2022/11/02 11:31:17;;;;;;;5.63;1.13;;;17.40;69.90;;;;;;5036412;28;20141;-74
2022/11/02 11:33:45;;;;;;;8.00;1.58;;;17.40;69.80;;;;;;5033091;28;20060;-73
2022/11/02 11:36:21;;;;;;;1.13;0.90;;;17.40;69.90;;;;;;5036466;28;20439;-73
2022/11/02 11:38:48;;;;;;;4.43;1.05;;;17.40;69.90;;;;;;5038760;28;20057;-72
2022/11/02 11:41:14;;;;;;;3.78;1.35;;;17.40;69.90;;;;;;5042212;28;20140;-74
2022/11/02 11:43:41;;;;;;;4.25;1.10;;;17.30;69.80;;;;;;5044352;28;20048;-73
2022/11/02 11:46:08;;;;;;;4.55;1.52;;;17.30;69.80;;;;;;5047124;28;20054;-73
2022/11/02 11:48:36;;;;;;;2.38;0.95;;;17.30;69.80;;;;;;5014419;28;20050;-75
2022/11/02 11:51:03;;;;;;;3.50;1.30;;;17.40;69.80;;;;;;5033030;28;20053;-73
2022/11/02 11:53:31;;;;;;;2.33;0.98;;;17.40;69.80;;;;;;5033724;28;20487;-73
2022/11/02 11:55:59;;;;;;;5.35;1.40;;;17.40;69.80;;;;;;5032071;28;20132;-72
2022/11/02 11:58:26;;;;;;;3.08;1.15;;;17.40;69.80;;;;;;5028300;28;20501;-73
2022/11/02 12:01:03;;;;;;;3.00;1.10;;;17.40;69.70;;;;;;5029959;28;20065;-73
2022/11/02 12:03:29;;;;;;;3.15;1.10;;;17.40;69.70;;;;;;5040090;28;20124;-73
2022/11/02 12:06:02;;;;;;;3.60;1.50;;;17.40;69.70;;;;;;5019349;28;20049;-73
2022/11/02 12:08:42;;;;;;;4.03;1.00;;;17.40;69.70;;;;;;5018892;28;20053;-72
2022/11/02 12:11:25;;;;;;;5.95;1.33;;;17.40;69.70;;;;;;5021763;28;20060;-73
2022/11/02 12:14:04;;;;;;;4.22;1.65;;;17.40;69.70;;;;;;5047468;28;20099;-73
2022/11/02 12:16:47;;;;;;;2.85;1.13;;;17.40;69.70;;;;;;5031450;28;20516;-74
2022/11/02 12:19:19;;;;;;;3.60;1.10;;;17.40;69.70;;;;;;5014941;28;20076;-73
2022/11/02 12:21:53;;;;;;;3.33;1.05;;;17.40;69.70;;;;;;5030616;28;20064;-74
2022/11/02 12:24:32;;;;;;;4.55;1.52;;;17.40;69.70;;;;;;5031474;28;20504;-73
2022/11/02 12:27:06;;;;;;;1.55;0.90;;;17.40;69.70;;;;;;5031818;28;20053;-73
2022/11/02 12:29:57;;;;;;;4.28;1.17;;;17.40;69.70;;;;;;5031475;28;20050;-72
2022/11/02 12:32:33;;;;;;;6.45;1.42;;;17.40;69.70;;;;;;5030466;28;20511;-73
2022/11/02 12:35:16;;;;;;;4.28;1.30;;;17.40;69.70;;;;;;5031351;28;20056;-73
2022/11/02 12:37:50;;;;;;;3.88;1.05;;;17.40;69.70;;;;;;5031435;28;20061;-73
2022/11/02 12:40:38;;;;;;;4.60;1.38;;;17.40;69.70;;;;;;5032481;28;20080;-73
2022/11/02 12:43:17;;;;;;;2.08;1.10;;;17.40;69.70;;;;;;5014632;28;20053;-73
2022/11/02 12:45:47;;;;;;;3.78;1.10;;;17.40;69.70;;;;;;5030947;28;20049;-73
2022/11/02 12:48:16;;;;;;;2.85;1.10;;;17.40;69.70;;;;;;5011866;28;20053;-73
2022/11/02 12:50:51;;;;;;;4.20;1.20;;;17.40;69.70;;;;;;5027531;28;20064;-73
2022/11/02 12:53:23;;;;;;;;;;;17.40;69.70;;;;;;5028181;28;20097;-73
2022/11/02 12:55:52;;;;;;;4.03;1.15;;;17.30;69.60;;;;;;5044530;28;19933;-73
2022/11/02 12:58:21;;;;;;;5.15;1.10;;;17.30;69.80;;;;;;5011589;28;20621;-73
2022/11/02 13:00:49;;;;;;;4.15;1.25;;;17.40;69.70;;;;;;5011039;28;20115;-73
2022/11/02 13:03:25;;;;;;;2.97;1.10;;;17.30;69.70;;;;;;5035550;28;20057;-73
2022/11/02 13:05:54;;;;;;;2.80;1.38;;;17.30;69.60;;;;;;5044619;28;20070;-73
2022/11/02 13:08:22;;;;;;;3.72;1.20;;;17.30;69.70;;;;;;5044337;28;20061;-73
2022/11/02 13:10:52;;;;;;;3.13;0.88;;;17.30;69.70;;;;;;5011870;28;20060;-73
2022/11/02 13:13:28;;;;;;;3.58;1.38;;;17.30;69.60;;;;;;5011820;28;20049;-73